Time;durP1;ratioP1;P1;durP2;ratioP2;P2;SDS_P1;SDS_P2;PMS_P1;PMS_P2;Temp;Humidity;BMP_temperature;BMP_pressure;BME280_temperature;BME280_humidity;BME280_pressure;Samples;Min_cycle;Max_cycle;Signal;HPM_P1;HPM_P2
2022/12/11 00:01:59;;;;;;;8.18;3.92;;;19.70;50.70;;;;;;4973401;28;20051;-58
2022/12/11 00:04:24;;;;;;;7.97;4.03;;;19.70;50.50;;;;;;4973275;28;20501;-58
2022/12/11 00:06:51;;;;;;;6.32;4.28;;;19.70;50.50;;;;;;4973051;28;20046;-58
2022/12/11 00:09:17;;;;;;;7.32;4.03;;;19.70;50.50;;;;;;4973559;28;20038;-58
2022/12/11 00:11:43;;;;;;;9.38;3.90;;;19.70;50.50;;;;;;4973849;28;20050;-59
2022/12/11 00:14:08;;;;;;;7.53;4.05;;;19.70;50.40;;;;;;4972006;28;20039;-58
2022/12/11 00:16:34;;;;;;;7.13;3.95;;;19.60;50.30;;;;;;4973417;28;20043;-58
2022/12/11 00:18:59;;;;;;;6.88;4.15;;;19.60;50.40;;;;;;4973543;28;20142;-58
2022/12/11 00:21:25;;;;;;;6.22;3.55;;;19.60;50.40;;;;;;4972272;28;20081;-59
2022/12/11 00:23:51;;;;;;;5.93;3.55;;;19.60;50.30;;;;;;4975940;28;20043;-58
2022/12/11 00:26:16;;;;;;;5.90;3.40;;;19.60;50.40;;;;;;4976596;28;20082;-58
2022/12/11 00:28:42;;;;;;;6.43;3.25;;;19.60;50.40;;;;;;4977631;28;20512;-55
2022/12/11 00:31:10;;;;;;;6.68;4.05;;;19.60;50.30;;;;;;4977200;28;20043;-56
2022/12/11 00:33:35;;;;;;;6.35;3.03;;;19.50;50.30;;;;;;4976761;28;20047;-56
2022/12/11 00:36:01;;;;;;;7.10;4.20;;;19.50;50.30;;;;;;4977405;28;20093;-56
2022/12/11 00:38:27;;;;;;;5.60;3.42;;;19.50;50.30;;;;;;4977187;28;20043;-56
2022/12/11 00:40:57;;;;;;;6.97;3.72;;;19.50;50.30;;;;;;4976561;28;20081;-55
2022/12/11 00:43:22;;;;;;;6.72;3.40;;;19.50;50.30;;;;;;4976649;28;20514;-56
2022/12/11 00:45:48;;;;;;;5.68;3.13;;;19.50;50.30;;;;;;4977415;28;20054;-56
2022/12/11 00:48:14;;;;;;;6.50;3.63;;;19.50;50.30;;;;;;4976445;28;20475;-55
2022/12/11 00:50:39;;;;;;;5.25;3.35;;;19.50;50.30;;;;;;4977425;28;20047;-55
2022/12/11 00:53:05;;;;;;;5.97;3.22;;;19.40;50.30;;;;;;4976873;28;20074;-56
2022/12/11 00:55:31;;;;;;;4.97;3.15;;;19.40;50.30;;;;;;4976240;28;20046;-56
2022/12/11 00:57:59;;;;;;;6.93;3.50;;;19.40;50.30;;;;;;4975648;28;20054;-56
2022/12/11 01:00:25;;;;;;;6.93;3.50;;;19.40;50.30;;;;;;4976702;28;20047;-55
2022/12/11 01:02:50;;;;;;;6.40;3.72;;;19.40;50.30;;;;;;4976006;28;20058;-55
2022/12/11 01:05:16;;;;;;;6.45;3.40;;;19.40;50.40;;;;;;4971978;28;20039;-56
2022/12/11 01:07:42;;;;;;;5.93;3.65;;;19.40;50.30;;;;;;4976658;28;20094;-55
2022/12/11 01:10:24;;;;;;;6.15;3.13;;;19.40;50.30;;;;;;4976319;28;20043;-56
2022/12/11 01:12:57;;;;;;;6.18;3.10;;;19.40;50.30;;;;;;4975677;28;20058;-56
2022/12/11 01:15:24;;;;;;;5.47;3.08;;;19.40;50.30;;;;;;4975618;28;20062;-55
2022/12/11 01:17:50;;;;;;;6.10;3.38;;;19.40;50.30;;;;;;4976245;28;20069;-56
2022/12/11 01:20:16;;;;;;;5.45;3.30;;;19.30;50.20;;;;;;4976289;28;20118;-55
2022/12/11 01:22:41;;;;;;;5.78;3.53;;;19.30;50.30;;;;;;4975773;28;20142;-55
2022/12/11 01:25:08;;;;;;;5.65;3.40;;;19.30;50.20;;;;;;4976311;28;20182;-55
2022/12/11 01:27:34;;;;;;;5.97;3.22;;;19.30;50.20;;;;;;4975511;28;20049;-55
2022/12/11 01:30:00;;;;;;;5.80;3.15;;;19.30;50.20;;;;;;4975921;28;20043;-55
2022/12/11 01:32:27;;;;;;;6.15;3.00;;;19.30;50.20;;;;;;4976044;28;20106;-55
2022/12/11 01:34:53;;;;;;;5.50;3.20;;;19.30;50.10;;;;;;4975136;28;20079;-55
2022/12/11 01:37:18;;;;;;;5.45;2.80;;;19.30;50.10;;;;;;4975123;28;20140;-55
2022/12/11 01:39:44;;;;;;;5.63;2.97;;;19.30;50.10;;;;;;4976295;28;20039;-55
2022/12/11 01:42:10;;;;;;;4.70;2.92;;;19.30;50.10;;;;;;4975984;28;20397;-55
2022/12/11 01:44:36;;;;;;;7.22;2.90;;;19.30;50.00;;;;;;4958134;28;20059;-55
2022/12/11 01:47:01;;;;;;;5.80;2.92;;;19.30;50.00;;;;;;4974843;28;20055;-55
2022/12/11 01:49:27;;;;;;;5.15;2.70;;;19.30;50.00;;;;;;4975844;28;20049;-56
2022/12/11 01:51:58;;;;;;;4.80;2.80;;;19.40;50.10;;;;;;4974027;28;20070;-55
2022/12/11 01:54:24;;;;;;;4.65;3.08;;;19.40;50.00;;;;;;4974542;28;20405;-56
2022/12/11 01:56:51;;;;;;;6.05;3.20;;;19.40;50.00;;;;;;4976209;28;20109;-56
2022/12/11 01:59:18;;;;;;;5.20;2.95;;;19.40;50.00;;;;;;4973864;28;20046;-56
2022/12/11 02:02:08;;;;;;;5.30;2.97;;;19.30;49.90;;;;;;4974565;28;20058;-56
2022/12/11 02:04:34;;;;;;;5.75;2.60;;;19.40;50.00;;;;;;4968807;28;20117;-56
2022/12/11 02:06:59;;;;;;;5.25;2.70;;;19.40;50.00;;;;;;4958358;28;20070;-56
2022/12/11 02:09:30;;;;;;;5.50;2.92;;;19.40;50.00;;;;;;4974719;28;20101;-56
2022/12/11 02:12:43;;;;;;;4.72;2.58;;;19.40;49.90;;;;;;4957795;28;20054;-55
2022/12/11 02:15:35;;;;;;;4.22;2.17;;;19.40;50.00;;;;;;4963330;28;20058;-55
2022/12/11 02:18:23;;;;;;;5.15;2.80;;;19.40;49.90;;;;;;4974781;28;20570;-55
2022/12/11 02:21:07;;;;;;;5.63;2.90;;;19.40;49.90;;;;;;4973490;28;20447;-55
2022/12/11 02:23:47;;;;;;;4.90;2.70;;;19.50;50.00;;;;;;4974896;28;20050;-55
2022/12/11 02:26:30;;;;;;;5.32;2.75;;;19.40;49.90;;;;;;4974731;28;20151;-55
2022/12/11 02:29:00;;;;;;;4.88;2.58;;;19.50;49.90;;;;;;4974243;28;20401;-55
2022/12/11 02:31:39;;;;;;;4.15;2.20;;;19.50;49.90;;;;;;4973989;28;20078;-55
2022/12/11 02:34:26;;;;;;;5.57;3.13;;;19.50;49.90;;;;;;4974477;28;20406;-56
2022/12/11 02:36:55;;;;;;;4.32;2.40;;;19.50;49.90;;;;;;4959398;28;20043;-56
2022/12/11 02:39:21;;;;;;;4.22;2.17;;;19.50;49.90;;;;;;4957940;28;20046;-55
2022/12/11 02:41:48;;;;;;;5.55;3.08;;;19.50;49.90;;;;;;4957284;28;20046;-56
2022/12/11 02:44:14;;;;;;;4.78;2.38;;;19.50;49.90;;;;;;4968319;28;20054;-56
2022/12/11 02:46:40;;;;;;;5.13;2.58;;;19.50;49.80;;;;;;4973627;28;20051;-56
2022/12/11 02:49:05;;;;;;;4.88;2.60;;;19.50;49.80;;;;;;4974288;28;20403;-56
2022/12/11 02:51:34;;;;;;;4.32;2.45;;;19.50;49.80;;;;;;4972980;28;20086;-55
2022/12/11 02:54:00;;;;;;;4.45;2.40;;;19.50;49.80;;;;;;4972760;28;20134;-57
2022/12/11 02:56:35;;;;;;;5.05;2.35;;;19.50;49.80;;;;;;4974701;28;20122;-57
2022/12/11 02:59:06;;;;;;;4.35;2.60;;;19.50;49.80;;;;;;4973913;28;20125;-57
2022/12/11 03:01:31;;;;;;;3.92;2.10;;;19.50;49.90;;;;;;4972559;28;20046;-58
2022/12/11 03:03:57;;;;;;;4.55;2.42;;;19.50;49.80;;;;;;4973564;28;20046;-57
2022/12/11 03:06:26;;;;;;;4.57;2.63;;;19.60;49.90;;;;;;4974136;28;20039;-57
2022/12/11 03:08:52;;;;;;;4.32;2.30;;;19.50;49.80;;;;;;4972672;28;20446;-57
2022/12/11 03:11:17;;;;;;;3.88;2.22;;;19.60;49.90;;;;;;4974020;28;20042;-57
2022/12/11 03:13:43;;;;;;;4.60;2.28;;;19.50;49.80;;;;;;4974229;28;20372;-57
2022/12/11 03:16:38;;;;;;;4.32;2.53;;;19.50;49.80;;;;;;4973674;28;20046;-57
2022/12/11 03:19:25;;;;;;;4.30;2.28;;;19.60;49.80;;;;;;4972496;28;20055;-57
2022/12/11 03:22:13;;;;;;;4.13;2.22;;;19.50;49.80;;;;;;4974492;28;20051;-57
2022/12/11 03:24:51;;;;;;;4.10;2.08;;;19.60;49.80;;;;;;4973498;28;20078;-57
2022/12/11 03:27:37;;;;;;;3.72;2.05;;;19.60;49.80;;;;;;4974310;28;20474;-57
2022/12/11 03:30:09;;;;;;;4.80;2.40;;;19.60;49.80;;;;;;4973808;28;20047;-57
2022/12/11 03:32:41;;;;;;;4.03;1.88;;;19.50;49.70;;;;;;4973111;28;20467;-57
2022/12/11 03:35:17;;;;;;;4.32;2.10;;;19.50;49.80;;;;;;4972921;28;20509;-57
2022/12/11 03:37:42;;;;;;;3.75;2.00;;;19.50;50.40;;;;;;4972333;28;20046;-57
2022/12/11 03:40:14;;;;;;;4.95;2.25;;;19.50;49.80;;;;;;4973165;28;20487;-57
2022/12/11 03:42:40;;;;;;;4.45;2.28;;;19.60;49.80;;;;;;4972987;28;20587;-57
2022/12/11 03:45:07;;;;;;;4.45;2.30;;;19.60;49.80;;;;;;4972105;28;20047;-56
2022/12/11 03:47:32;;;;;;;4.35;2.03;;;19.60;49.80;;;;;;4972798;28;20047;-57
2022/12/11 03:49:58;;;;;;;4.05;2.28;;;19.60;49.80;;;;;;4972841;28;20050;-57
2022/12/11 03:52:26;;;;;;;4.47;2.15;;;19.60;49.80;;;;;;4971652;28;20047;-57
2022/12/11 03:54:52;;;;;;;4.97;2.22;;;19.60;49.70;;;;;;4973003;28;20140;-57
2022/12/11 03:57:20;;;;;;;4.57;2.35;;;19.60;49.70;;;;;;4971123;28;20561;-57
2022/12/11 03:59:46;;;;;;;4.45;2.08;;;19.60;50.40;;;;;;4972437;28;20051;-56
2022/12/11 04:02:11;;;;;;;3.90;1.92;;;19.60;49.70;;;;;;4972159;28;20384;-57
2022/12/11 04:04:37;;;;;;;4.30;2.25;;;19.60;49.70;;;;;;4968009;28;20039;-57
2022/12/11 04:07:03;;;;;;;4.57;2.33;;;19.70;49.80;;;;;;4973648;28;20101;-57
2022/12/11 04:09:28;;;;;;;5.40;2.70;;;19.70;49.70;;;;;;4974039;28;20055;-57
2022/12/11 04:11:54;;;;;;;3.53;2.15;;;19.70;49.70;;;;;;4973289;28;20121;-57
2022/12/11 04:17:04;;;;;;;4.22;1.88;;;19.70;49.70;;;;;;4973922;28;20059;-57
2022/12/11 04:24:59;;;;;;;3.35;1.73;;;19.70;49.60;;;;;;4973930;28;20063;-57
2022/12/11 04:30:11;;;;;;;5.13;2.08;;;19.70;49.60;;;;;;4973391;28;20102;-57
2022/12/11 04:32:37;;;;;;;3.35;1.80;;;19.70;49.60;;;;;;4972910;28;20051;-56
2022/12/11 04:35:03;;;;;;;3.92;1.92;;;19.70;49.60;;;;;;4973555;28;20105;-57
2022/12/11 04:37:28;;;;;;;4.88;2.10;;;19.70;49.60;;;;;;4973276;28;20047;-56
2022/12/11 04:39:54;;;;;;;3.83;1.83;;;19.70;49.60;;;;;;4972938;28;20050;-57
2022/12/11 04:42:19;;;;;;;4.40;2.03;;;19.70;49.60;;;;;;4973377;28;20046;-57
2022/12/11 04:44:45;;;;;;;4.07;2.00;;;19.70;49.50;;;;;;4973447;28;20055;-57
2022/12/11 04:47:11;;;;;;;4.28;1.90;;;19.80;49.60;;;;;;4972288;28;20454;-57
2022/12/11 04:49:36;;;;;;;3.45;2.00;;;19.80;49.60;;;;;;4971878;28;20093;-57
2022/12/11 04:52:02;;;;;;;3.50;1.90;;;19.80;49.60;;;;;;4973288;28;20106;-57
2022/12/11 04:54:29;;;;;;;4.20;2.00;;;19.80;49.60;;;;;;4972455;28;20062;-56
2022/12/11 04:56:55;;;;;;;4.55;1.80;;;19.80;49.60;;;;;;4973405;28;20070;-57
2022/12/11 04:59:20;;;;;;;4.63;2.08;;;19.80;49.50;;;;;;4973102;28;20398;-57
2022/12/11 05:01:46;;;;;;;3.92;2.03;;;19.80;49.50;;;;;;4972489;28;20525;-56
2022/12/11 05:04:12;;;;;;;4.65;2.28;;;19.80;49.50;;;;;;4972176;28;20039;-57
2022/12/11 05:06:37;;;;;;;3.35;1.85;;;19.80;49.40;;;;;;4972397;28;20126;-57
2022/12/11 05:09:03;;;;;;;2.95;1.85;;;19.80;49.40;;;;;;4973234;28;20121;-57
2022/12/11 05:11:28;;;;;;;4.15;2.05;;;19.80;49.50;;;;;;4974910;28;20054;-58
2022/12/11 05:13:54;;;;;;;4.50;2.15;;;19.80;49.40;;;;;;4976990;28;20073;-58
2022/12/11 05:16:19;;;;;;;4.35;2.20;;;19.90;49.50;;;;;;4975624;28;20038;-58
2022/12/11 05:18:46;;;;;;;3.70;2.10;;;19.90;49.50;;;;;;4976465;28;20181;-57
2022/12/11 05:21:12;;;;;;;4.38;2.05;;;19.90;49.50;;;;;;4976497;28;20143;-57
2022/12/11 05:23:38;;;;;;;3.70;1.92;;;19.90;49.40;;;;;;4975731;28;20089;-57
2022/12/11 05:26:05;;;;;;;4.55;1.85;;;19.90;49.40;;;;;;4976734;28;20067;-57
2022/12/11 05:28:32;;;;;;;4.60;2.03;;;19.90;49.40;;;;;;4975922;28;20121;-58
2022/12/11 05:31:00;;;;;;;4.43;2.10;;;19.90;49.40;;;;;;4976619;28;20047;-57
2022/12/11 05:33:25;;;;;;;4.13;2.17;;;19.90;49.40;;;;;;4976180;28;20588;-57
2022/12/11 05:35:51;;;;;;;4.47;2.20;;;19.90;49.40;;;;;;4975590;28;20082;-57
2022/12/11 05:38:16;;;;;;;4.97;2.30;;;19.90;49.40;;;;;;4976169;28;20071;-57
2022/12/11 05:40:42;;;;;;;4.32;2.20;;;19.90;49.40;;;;;;4972378;28;20046;-57
2022/12/11 05:43:08;;;;;;;4.43;1.95;;;19.90;49.40;;;;;;4975356;28;20059;-57
2022/12/11 05:45:33;;;;;;;5.55;1.95;;;19.90;49.40;;;;;;4976158;28;20039;-57
2022/12/11 05:47:59;;;;;;;3.67;1.83;;;19.90;49.40;;;;;;4976295;28;20137;-57
2022/12/11 05:50:24;;;;;;;4.40;2.10;;;20.00;49.50;;;;;;4975245;28;20039;-57
2022/12/11 05:52:50;;;;;;;4.30;2.20;;;19.90;49.30;;;;;;4976126;28;20047;-57
2022/12/11 05:55:16;;;;;;;4.78;2.35;;;19.90;49.30;;;;;;4975725;28;20042;-57
2022/12/11 05:57:41;;;;;;;3.45;1.60;;;19.90;49.30;;;;;;4975530;28;20042;-57
2022/12/11 06:00:08;;;;;;;4.28;2.20;;;19.90;49.30;;;;;;4976274;28;20134;-57
2022/12/11 06:02:34;;;;;;;3.72;2.10;;;20.00;49.40;;;;;;4975709;28;20043;-57
2022/12/11 06:05:00;;;;;;;4.30;2.08;;;20.00;49.30;;;;;;4975269;28;20093;-57
2022/12/11 06:07:25;;;;;;;5.20;2.38;;;20.00;49.30;;;;;;4975524;28;20050;-57
2022/12/11 06:09:51;;;;;;;5.28;2.58;;;20.00;49.30;;;;;;4974519;28;20093;-57
2022/12/11 06:12:16;;;;;;;5.10;2.55;;;20.00;49.30;;;;;;4975021;28;20055;-57
2022/12/11 06:14:42;;;;;;;4.43;2.10;;;20.00;49.30;;;;;;4975917;28;20054;-57
2022/12/11 06:17:07;;;;;;;3.92;2.00;;;20.00;49.20;;;;;;4975625;28;20053;-57
2022/12/11 06:19:33;;;;;;;4.28;2.10;;;20.00;49.20;;;;;;4974332;28;20074;-57
2022/12/11 06:21:59;;;;;;;4.28;2.30;;;20.00;49.20;;;;;;4974627;28;20059;-57
2022/12/11 06:24:24;;;;;;;5.35;2.58;;;20.00;49.20;;;;;;4975460;28;20046;-57
2022/12/11 06:26:50;;;;;;;4.93;2.17;;;20.00;49.20;;;;;;4974790;28;20089;-57
2022/12/11 06:29:15;;;;;;;4.05;1.92;;;20.00;49.20;;;;;;4975069;28;20046;-57
2022/12/11 06:31:41;;;;;;;3.70;1.90;;;20.00;49.20;;;;;;4975598;28;20070;-57
2022/12/11 06:34:07;;;;;;;4.32;2.15;;;20.10;49.20;;;;;;4974780;28;20047;-57
2022/12/11 06:36:33;;;;;;;3.50;1.92;;;20.10;49.20;;;;;;4973887;28;20549;-57
2022/12/11 06:38:59;;;;;;;4.07;2.00;;;20.10;49.20;;;;;;4974501;28;20126;-57
2022/12/11 06:41:24;;;;;;;4.32;2.00;;;20.00;49.20;;;;;;4973592;28;20046;-57
2022/12/11 06:43:50;;;;;;;5.03;2.28;;;20.00;49.10;;;;;;4969891;28;20050;-57
2022/12/11 06:46:17;;;;;;;5.90;2.75;;;20.10;49.20;;;;;;4974212;28;20051;-57
2022/12/11 06:48:42;;;;;;;4.57;2.10;;;20.10;49.20;;;;;;4975304;28;20047;-57
2022/12/11 06:51:09;;;;;;;4.95;2.15;;;20.00;49.20;;;;;;4975012;28;20045;-57
2022/12/11 06:53:35;;;;;;;4.40;2.05;;;20.10;49.20;;;;;;4974185;28;20050;-57
2022/12/11 06:56:05;;;;;;;4.30;2.30;;;20.10;49.20;;;;;;4975294;28;20039;-57
2022/12/11 06:58:30;;;;;;;4.78;2.15;;;20.10;49.10;;;;;;4974927;28;20053;-57
2022/12/11 07:00:56;;;;;;;4.32;2.45;;;20.00;49.10;;;;;;4974166;28;20129;-57
2022/12/11 07:03:22;;;;;;;4.60;2.35;;;20.00;49.10;;;;;;4974310;28;20055;-57
2022/12/11 07:05:47;;;;;;;4.72;2.42;;;20.00;49.10;;;;;;4973568;28;20039;-57
2022/12/11 07:08:13;;;;;;;5.22;2.30;;;20.00;49.10;;;;;;4973883;28;20043;-57
2022/12/11 07:10:39;;;;;;;5.00;2.33;;;20.10;49.10;;;;;;4974712;28;20046;-57
2022/12/11 07:13:04;;;;;;;4.72;2.53;;;20.00;49.10;;;;;;4974828;28;20078;-57
2022/12/11 07:15:30;;;;;;;4.65;2.15;;;20.00;49.10;;;;;;4972344;28;20077;-57
2022/12/11 07:17:55;;;;;;;6.05;2.60;;;20.00;49.10;;;;;;4974897;28;20046;-57
2022/12/11 07:20:21;;;;;;;4.32;2.10;;;20.10;49.20;;;;;;4974398;28;20065;-57
2022/12/11 07:22:47;;;;;;;4.55;2.25;;;20.00;49.10;;;;;;4973647;28;20047;-56
2022/12/11 07:25:13;;;;;;;5.35;2.95;;;20.10;49.10;;;;;;4973952;28;20047;-57
2022/12/11 07:27:38;;;;;;;5.65;2.45;;;20.00;49.10;;;;;;4974373;28;20478;-57
2022/12/11 07:30:04;;;;;;;3.85;2.00;;;20.00;49.00;;;;;;4973469;28;20089;-56
2022/12/11 07:32:30;;;;;;;4.38;2.30;;;20.10;49.10;;;;;;4974250;28;20081;-57
2022/12/11 07:34:55;;;;;;;5.20;2.70;;;20.00;49.00;;;;;;4974258;28;20078;-57
2022/12/11 07:37:21;;;;;;;5.60;2.80;;;20.10;49.10;;;;;;4973182;28;20054;-57
2022/12/11 07:39:47;;;;;;;7.85;2.28;;;20.10;49.00;;;;;;4973062;28;20558;-58
2022/12/11 07:42:13;;;;;;;5.45;2.97;;;20.00;49.00;;;;;;4973139;28;20046;-58
2022/12/11 07:44:39;;;;;;;5.45;2.30;;;20.10;49.00;;;;;;4973925;28;20057;-58
2022/12/11 07:47:04;;;;;;;6.47;2.85;;;20.00;49.00;;;;;;4974215;28;20458;-58
2022/12/11 07:49:30;;;;;;;5.63;2.50;;;20.00;49.10;;;;;;4973311;28;20046;-58
2022/12/11 07:51:55;;;;;;;4.57;2.25;;;20.00;49.20;;;;;;4973936;28;20046;-58
2022/12/11 07:54:21;;;;;;;5.22;2.70;;;20.00;49.20;;;;;;4973608;28;20133;-58
2022/12/11 07:56:46;;;;;;;6.35;2.45;;;20.00;49.20;;;;;;4973179;28;20043;-58
2022/12/11 07:59:12;;;;;;;5.28;2.72;;;20.10;49.30;;;;;;4973394;28;20039;-58
2022/12/11 08:01:38;;;;;;;5.25;2.53;;;20.00;49.30;;;;;;4974051;28;20047;-59
2022/12/11 08:04:05;;;;;;;4.82;2.22;;;20.00;49.30;;;;;;4973306;28;20038;-58
2022/12/11 08:06:32;;;;;;;5.72;2.53;;;20.00;49.40;;;;;;4973718;28;20043;-62
2022/12/11 08:08:58;;;;;;;5.60;2.42;;;20.00;49.60;;;;;;4973844;28;20114;-59
2022/12/11 08:11:24;;;;;;;5.28;2.10;;;20.00;49.60;;;;;;4972964;28;20079;-59
2022/12/11 08:13:50;;;;;;;6.05;2.60;;;20.00;49.60;;;;;;4973836;28;20047;-58
2022/12/11 08:16:16;;;;;;;6.30;2.22;;;20.10;49.90;;;;;;4973487;28;20051;-58
2022/12/11 08:18:41;;;;;;;5.18;2.53;;;20.00;49.80;;;;;;4973104;28;20039;-59
2022/12/11 08:21:08;;;;;;;5.18;2.70;;;20.00;49.90;;;;;;4973389;28;20125;-58
2022/12/11 08:23:33;;;;;;;7.35;2.80;;;20.00;49.90;;;;;;4973479;28;20499;-58
2022/12/11 08:26:02;;;;;;;6.38;2.80;;;20.10;49.90;;;;;;4973192;28;20053;-59
2022/12/11 08:28:27;;;;;;;8.80;3.10;;;20.00;49.80;;;;;;4973490;28;20068;-58
2022/12/11 08:30:53;;;;;;;7.63;2.88;;;20.00;49.70;;;;;;4973819;28;20049;-58
2022/12/11 08:33:18;;;;;;;6.43;2.70;;;20.10;49.80;;;;;;4971443;28;20050;-58
2022/12/11 08:35:45;;;;;;;6.07;2.80;;;20.10;49.80;;;;;;4973802;28;20371;-59
2022/12/11 08:38:11;;;;;;;7.18;2.47;;;20.10;49.90;;;;;;4973340;28;20102;-59
2022/12/11 08:40:36;;;;;;;8.20;3.08;;;20.00;49.90;;;;;;4972670;28;20039;-58
2022/12/11 08:43:02;;;;;;;7.10;2.40;;;20.00;49.90;;;;;;4973340;28;20061;-59
2022/12/11 08:45:27;;;;;;;5.90;2.63;;;20.00;50.00;;;;;;4974361;28;20465;-59
2022/12/11 08:47:53;;;;;;;5.13;2.80;;;20.00;50.00;;;;;;4977574;28;20053;-58
2022/12/11 08:50:19;;;;;;;6.25;3.00;;;20.10;50.10;;;;;;4972820;28;20126;-59
2022/12/11 08:52:44;;;;;;;6.93;2.58;;;20.00;50.20;;;;;;4976318;28;20046;-58
2022/12/11 08:55:10;;;;;;;6.15;2.70;;;20.10;50.20;;;;;;4975173;28;20046;-59
2022/12/11 08:57:38;;;;;;;4.50;2.35;;;20.10;50.30;;;;;;4976894;28;20046;-58
2022/12/11 09:00:05;;;;;;;;;;;20.10;50.20;;;;;;4977073;28;20042;-58
2022/12/11 09:02:30;;;;;;;5.03;2.38;;;20.10;50.20;;;;;;4976830;28;19922;-58
2022/12/11 09:04:56;;;;;;;5.97;2.80;;;20.10;50.30;;;;;;4984821;28;20042;-57
2022/12/11 09:07:21;;;;;;;5.15;2.45;;;20.00;50.40;;;;;;4988998;28;20383;-57
2022/12/11 09:09:47;;;;;;;6.03;2.42;;;20.10;50.60;;;;;;4995283;28;20081;-57
2022/12/11 09:12:12;;;;;;;5.75;2.75;;;20.00;50.60;;;;;;4994553;28;20390;-58
2022/12/11 09:14:38;;;;;;;4.85;2.63;;;20.10;50.70;;;;;;4995453;28;20493;-58
2022/12/11 09:17:04;;;;;;;6.68;2.60;;;20.00;50.80;;;;;;4995911;28;20068;-58
2022/12/11 09:19:29;;;;;;;5.10;2.55;;;20.10;50.90;;;;;;4995926;28;20432;-57
2022/12/11 09:21:55;;;;;;;5.18;2.30;;;20.00;50.90;;;;;;4995398;28;20046;-58
2022/12/11 09:24:21;;;;;;;5.45;2.80;;;20.00;51.00;;;;;;4995973;28;20038;-57
2022/12/11 09:26:46;;;;;;;4.75;2.17;;;20.10;51.20;;;;;;4996150;28;20043;-57
2022/12/11 09:29:12;;;;;;;4.13;2.38;;;20.00;51.20;;;;;;4993812;28;20050;-58
2022/12/11 09:31:38;;;;;;;4.63;2.30;;;20.10;51.30;;;;;;4996325;28;20402;-57
2022/12/11 09:34:05;;;;;;;5.30;2.30;;;20.00;51.60;;;;;;4995797;28;20042;-57
2022/12/11 09:36:31;;;;;;;4.60;2.53;;;20.00;51.30;;;;;;4994986;28;20082;-57
2022/12/11 09:39:00;;;;;;;6.97;2.40;;;20.00;51.40;;;;;;4996014;28;20442;-58
2022/12/11 09:41:51;;;;;;;4.03;2.42;;;20.00;51.40;;;;;;4995235;28;20052;-57
2022/12/11 09:44:30;;;;;;;6.00;2.60;;;20.10;51.60;;;;;;4993084;28;20055;-57
2022/12/11 09:46:56;;;;;;;5.60;2.65;;;20.00;51.30;;;;;;4995187;28;20074;-57
2022/12/11 09:49:39;;;;;;;4.47;2.50;;;20.00;51.20;;;;;;4994579;28;20506;-57
2022/12/11 09:52:16;;;;;;;4.38;2.28;;;20.00;51.30;;;;;;4994281;28;20072;-57
2022/12/11 09:54:55;;;;;;;5.70;2.65;;;20.00;51.10;;;;;;4996033;28;20042;-57
2022/12/11 09:57:38;;;;;;;4.93;2.20;;;20.00;51.10;;;;;;4992605;28;20054;-57
2022/12/11 10:00:04;;;;;;;5.40;2.90;;;20.00;51.10;;;;;;4995693;28;20046;-57
2022/12/11 10:02:33;;;;;;;5.13;2.80;;;20.00;51.00;;;;;;4995114;28;20050;-56
2022/12/11 10:05:15;;;;;;;4.80;2.63;;;20.00;51.00;;;;;;4993384;28;20046;-57
2022/12/11 10:08:15;;;;;;;5.20;2.60;;;20.00;51.00;;;;;;4961476;28;20131;-57
2022/12/11 10:10:48;;;;;;;7.50;2.72;;;19.90;50.90;;;;;;4967375;28;20483;-57
2022/12/11 10:13:32;;;;;;;4.45;2.47;;;19.90;50.90;;;;;;4969739;28;20039;-57
2022/12/11 10:16:16;;;;;;;4.38;2.22;;;19.90;50.70;;;;;;4954700;28;20074;-58
2022/12/11 10:18:41;;;;;;;5.07;2.30;;;19.90;50.70;;;;;;4954748;28;20054;-58
2022/12/11 10:21:07;;;;;;;7.57;2.80;;;19.90;50.70;;;;;;4956085;28;20039;-58
2022/12/11 10:23:45;;;;;;;5.80;2.53;;;19.90;50.70;;;;;;4955042;28;20046;-57
2022/12/11 10:26:18;;;;;;;4.95;2.63;;;19.90;50.60;;;;;;4968602;28;20079;-58
2022/12/11 10:28:44;;;;;;;5.75;3.03;;;19.90;50.70;;;;;;4957815;28;20487;-57
2022/12/11 10:31:17;;;;;;;5.60;3.00;;;19.90;50.70;;;;;;4954541;28;20050;-58
2022/12/11 10:33:57;;;;;;;4.80;2.80;;;19.90;50.70;;;;;;4955378;28;20047;-58
2022/12/11 10:36:34;;;;;;;5.90;3.05;;;19.90;50.60;;;;;;4961009;28;20061;-59
2022/12/11 10:38:59;;;;;;;5.68;2.72;;;19.90;50.50;;;;;;4969338;28;20047;-59
2022/12/11 10:41:37;;;;;;;7.13;2.90;;;19.90;50.60;;;;;;4967686;28;20057;-59
2022/12/11 10:44:22;;;;;;;7.78;2.78;;;19.80;50.70;;;;;;4955694;28;20055;-59
2022/12/11 10:47:01;;;;;;;6.28;2.83;;;19.80;50.70;;;;;;4955375;28;20094;-59
2022/12/11 10:49:29;;;;;;;5.47;2.75;;;19.80;50.80;;;;;;4955671;28;20089;-60
2022/12/11 10:51:54;;;;;;;5.25;2.50;;;19.80;50.90;;;;;;4955783;28;20102;-59
2022/12/11 10:54:37;;;;;;;6.38;2.95;;;19.80;50.90;;;;;;4954525;28;20486;-60
2022/12/11 10:57:04;;;;;;;5.50;2.60;;;19.80;51.00;;;;;;4970682;28;20050;-59
2022/12/11 10:59:32;;;;;;;6.45;2.75;;;19.80;51.00;;;;;;4969612;28;20098;-59
2022/12/11 11:01:57;;;;;;;4.53;2.22;;;19.80;51.10;;;;;;4981774;28;20051;-59
2022/12/11 11:04:30;;;;;;;6.68;2.60;;;19.80;51.30;;;;;;4973635;28;20062;-60
2022/12/11 11:07:09;;;;;;;4.78;2.47;;;19.80;51.50;;;;;;4972075;28;20042;-59
2022/12/11 11:09:35;;;;;;;5.28;2.70;;;19.80;51.60;;;;;;4973111;28;20054;-59
2022/12/11 11:12:01;;;;;;;4.88;2.25;;;19.80;51.60;;;;;;4974561;28;20034;-59
2022/12/11 11:14:27;;;;;;;4.90;2.53;;;19.80;51.70;;;;;;4973355;28;20039;-59
2022/12/11 11:16:55;;;;;;;6.65;2.60;;;19.80;51.90;;;;;;4969916;28;20498;-59
2022/12/11 11:19:28;;;;;;;4.78;2.38;;;19.80;52.00;;;;;;4972872;28;20137;-59
2022/12/11 11:22:00;;;;;;;5.00;2.50;;;19.80;52.00;;;;;;4967304;28;20043;-59
2022/12/11 11:24:28;;;;;;;5.13;2.75;;;19.80;52.10;;;;;;4972446;28;20043;-59
2022/12/11 11:26:55;;;;;;;4.95;2.33;;;19.80;52.30;;;;;;4972753;28;20070;-58
2022/12/11 11:29:24;;;;;;;4.30;2.40;;;19.80;53.00;;;;;;4970888;28;20043;-59
2022/12/11 11:31:50;;;;;;;5.75;2.42;;;19.80;52.50;;;;;;4972815;28;20057;-59
2022/12/11 11:34:18;;;;;;;4.72;2.40;;;19.80;52.50;;;;;;4972295;28;20042;-59
2022/12/11 11:36:44;;;;;;;6.45;2.78;;;19.80;52.50;;;;;;4972798;28;20047;-58
2022/12/11 11:39:19;;;;;;;5.03;2.80;;;19.80;52.50;;;;;;4955195;28;20102;-59
2022/12/11 11:42:07;;;;;;;4.22;2.35;;;19.80;52.50;;;;;;4971780;28;20089;-59
2022/12/11 11:44:39;;;;;;;6.32;2.65;;;19.80;52.50;;;;;;4971767;28;20086;-59
2022/12/11 11:47:27;;;;;;;5.90;2.58;;;19.80;52.70;;;;;;4956997;28;20053;-61
2022/12/11 11:50:07;;;;;;;5.32;2.20;;;19.80;52.60;;;;;;4972738;28;20051;-58
2022/12/11 11:52:40;;;;;;;5.75;2.50;;;19.80;52.50;;;;;;4957452;28;20035;-58
2022/12/11 11:55:25;;;;;;;6.80;2.63;;;19.80;52.30;;;;;;4972935;28;20101;-58
2022/12/11 11:57:55;;;;;;;5.07;2.30;;;19.80;52.10;;;;;;4972335;28;20053;-58
2022/12/11 12:00:23;;;;;;;6.40;2.50;;;19.80;52.10;;;;;;4972601;28;20050;-58
2022/12/11 12:02:50;;;;;;;4.82;2.28;;;19.80;52.10;;;;;;4972998;28;20043;-58
2022/12/11 12:05:17;;;;;;;6.60;2.63;;;19.80;52.00;;;;;;4973460;28;20455;-58
2022/12/11 12:07:54;;;;;;;6.28;2.97;;;19.80;52.00;;;;;;4970165;28;20101;-61
2022/12/11 12:10:31;;;;;;;5.43;2.50;;;19.80;52.00;;;;;;4972014;28;20054;-59
2022/12/11 12:13:00;;;;;;;6.28;2.60;;;19.80;52.00;;;;;;4972326;28;20055;-59
2022/12/11 12:15:49;;;;;;;4.97;2.53;;;19.80;52.00;;;;;;4971864;28;20097;-58
2022/12/11 12:18:19;;;;;;;5.55;2.90;;;19.80;52.00;;;;;;4971046;28;20043;-58
2022/12/11 12:21:22;;;;;;;5.10;2.80;;;19.80;51.90;;;;;;4972535;28;20066;-59
2022/12/11 12:24:00;;;;;;;6.20;2.83;;;19.70;51.70;;;;;;4972601;28;20058;-59
2022/12/11 12:26:28;;;;;;;5.25;2.65;;;19.70;51.70;;;;;;4973267;28;20046;-59
2022/12/11 12:28:53;;;;;;;6.55;2.90;;;19.70;51.70;;;;;;4972527;28;20043;-59
2022/12/11 12:31:34;;;;;;;5.00;2.53;;;19.70;51.70;;;;;;4972731;28;20073;-59
2022/12/11 12:34:20;;;;;;;5.53;3.30;;;19.70;51.80;;;;;;4973520;28;20475;-59
2022/12/11 12:37:05;;;;;;;6.55;2.80;;;19.70;51.80;;;;;;4972670;28;20058;-59
2022/12/11 12:40:13;;;;;;;7.30;3.10;;;19.70;51.80;;;;;;4972421;28;20503;-59
2022/12/11 12:42:50;;;;;;;4.82;2.42;;;19.70;51.80;;;;;;4970715;28;20050;-60
2022/12/11 12:45:48;;;;;;;5.10;2.88;;;19.70;51.90;;;;;;4970047;28;20046;-59
2022/12/11 12:48:13;;;;;;;5.50;2.72;;;19.70;51.90;;;;;;4947138;28;20051;-59
2022/12/11 12:50:44;;;;;;;5.80;2.60;;;19.70;51.90;;;;;;4973762;28;20054;-60
2022/12/11 12:53:15;;;;;;;7.57;3.10;;;19.70;52.00;;;;;;4970978;28;20427;-59
2022/12/11 12:55:40;;;;;;;6.30;2.58;;;19.80;52.20;;;;;;4956422;28;20422;-59
2022/12/11 12:58:06;;;;;;;6.38;3.10;;;19.70;52.20;;;;;;4972488;28;20505;-59
2022/12/11 13:00:33;;;;;;;6.57;3.00;;;19.80;52.40;;;;;;4972526;28;20093;-59
2022/12/11 13:03:19;;;;;;;5.22;2.72;;;19.80;52.40;;;;;;4973067;28;20482;-59
2022/12/11 13:06:04;;;;;;;5.97;2.95;;;19.80;52.50;;;;;;4971687;28;20792;-59
2022/12/11 13:08:34;;;;;;;6.82;3.20;;;19.80;52.60;;;;;;4973125;28;20051;-59
2022/12/11 13:11:02;;;;;;;5.47;2.72;;;19.80;52.60;;;;;;4972210;28;20043;-59